Time;durP1;ratioP1;P1;durP2;ratioP2;P2;SDS_P1;SDS_P2;PMS_P1;PMS_P2;Temp;Humidity;BMP_temperature;BMP_pressure;BME280_temperature;BME280_humidity;BME280_pressure;Samples;Min_cycle;Max_cycle;Signal;HPM_P1;HPM_P2
2022/12/19 00:01:58;;;;;;;66.18;22.73;;;;;;;-0.27;100.00;101899.91;4991819;28;20030;-75
2022/12/19 00:04:23;;;;;;;66.60;23.10;;;;;;;-0.26;100.00;101890.59;4986760;28;20386;-75
2022/12/19 00:06:48;;;;;;;69.38;22.98;;;;;;;-0.28;100.00;101877.81;4990360;28;20389;-75
2022/12/19 00:09:14;;;;;;;63.40;23.08;;;;;;;-0.22;100.00;101874.63;4990938;28;20034;-75
2022/12/19 00:11:39;;;;;;;72.63;24.00;;;;;;;-0.19;100.00;101864.53;4980604;28;20026;-75
2022/12/19 00:14:05;;;;;;;66.38;23.10;;;;;;;-0.18;100.00;101856.94;4989646;28;20026;-75
2022/12/19 00:16:31;;;;;;;67.47;22.90;;;;;;;-0.17;100.00;101845.94;4992122;28;20054;-75
2022/12/19 00:18:59;;;;;;;66.80;22.67;;;;;;;-0.13;100.00;101852.00;4990748;28;20088;-75
2022/12/19 00:21:27;;;;;;;68.75;23.83;;;;;;;-0.10;100.00;101850.44;4991030;28;20045;-75
2022/12/19 00:23:52;;;;;;;73.43;23.50;;;;;;;-0.08;100.00;101840.31;4989420;28;20042;-75
2022/12/19 00:26:24;;;;;;;67.47;23.48;;;;;;;-0.02;100.00;101848.19;4988817;28;20389;-75
2022/12/19 00:28:55;;;;;;;71.30;22.52;;;;;;;0.04;100.00;101839.88;4992136;28;20042;-75
2022/12/19 00:31:21;;;;;;;69.43;22.77;;;;;;;0.11;100.00;101826.53;4991980;28;20014;-75
2022/12/19 00:33:48;;;;;;;76.25;23.67;;;;;;;0.17;100.00;101836.94;4989906;28;20030;-75
2022/12/19 00:36:18;;;;;;;77.15;24.58;;;;;;;0.21;100.00;101824.34;4991003;28;20065;-76
2022/12/19 00:38:45;;;;;;;76.97;23.20;;;;;;;0.27;100.00;101819.44;4973669;28;20022;-76
2022/12/19 00:41:19;;;;;;;76.75;24.60;;;;;;;0.34;100.00;101812.91;4990072;28;20034;-76
2022/12/19 00:43:45;;;;;;;71.43;23.50;;;;;;;0.36;100.00;101808.69;4989864;28;20057;-76
2022/12/19 00:46:13;;;;;;;75.35;25.27;;;;;;;0.40;100.00;101797.78;4973286;28;20053;-76
2022/12/19 00:48:39;;;;;;;70.80;23.75;;;;;;;0.43;100.00;101797.88;4989906;28;20027;-76
2022/12/19 00:51:10;;;;;;;73.68;24.15;;;;;;;0.46;100.00;101802.22;4991126;28;20037;-76
2022/12/19 00:53:36;;;;;;;73.65;24.05;;;;;;;0.48;100.00;101787.84;4991000;28;20034;-76
2022/12/19 00:56:04;;;;;;;77.28;24.23;;;;;;;0.52;100.00;101792.22;4970911;28;20117;-77
2022/12/19 00:58:30;;;;;;;69.22;23.75;;;;;;;0.54;100.00;101791.47;4989170;28;20367;-76
2022/12/19 01:00:56;;;;;;;76.10;23.02;;;;;;;0.57;100.00;101788.13;4989907;28;20485;-77
2022/12/19 01:03:22;;;;;;;70.20;23.00;;;;;;;0.60;100.00;101778.91;4987205;28;20070;-77
2022/12/19 01:05:49;;;;;;;74.55;23.40;;;;;;;0.62;100.00;101769.59;4991625;28;20046;-76
2022/12/19 01:08:15;;;;;;;74.22;22.42;;;;;;;0.67;100.00;101767.19;4990657;28;20081;-76
2022/12/19 01:10:47;;;;;;;74.75;23.52;;;;;;;0.69;100.00;101768.09;4974267;28;20018;-76
2022/12/19 01:13:16;;;;;;;80.25;24.42;;;;;;;0.72;100.00;101778.41;4991545;28;20088;-77
2022/12/19 01:15:42;;;;;;;74.43;23.67;;;;;;;0.74;100.00;101774.22;4989506;28;20023;-76
2022/12/19 01:18:12;;;;;;;72.25;23.30;;;;;;;0.75;100.00;101768.31;4985477;28;21453;-76
2022/12/19 01:20:43;;;;;;;72.30;22.90;;;;;;;0.78;100.00;101771.81;4988756;28;20061;-76
2022/12/19 01:23:09;;;;;;;69.82;21.92;;;;;;;0.80;100.00;101774.41;4986509;28;20022;-76
2022/12/19 01:25:36;;;;;;;70.00;23.65;;;;;;;0.82;100.00;101757.44;4991431;28;20076;-77
2022/12/19 01:28:03;;;;;;;71.03;22.48;;;;;;;0.84;100.00;101760.03;4991479;28;20559;-77
2022/12/19 01:30:29;;;;;;;62.05;22.20;;;;;;;0.86;100.00;101753.31;4991434;28;20018;-78
2022/12/19 01:32:55;;;;;;;69.22;21.70;;;;;;;0.87;100.00;101747.38;4985519;28;20041;-77
2022/12/19 01:35:21;;;;;;;69.63;23.60;;;;;;;0.90;100.00;101740.69;4991625;28;20019;-77
2022/12/19 01:37:46;;;;;;;75.22;24.23;;;;;;;0.92;100.00;101736.50;4993805;28;20153;-77
2022/12/19 01:40:11;;;;;;;62.03;21.20;;;;;;;0.92;100.00;101754.38;4994668;28;20069;-77
2022/12/19 01:42:37;;;;;;;68.10;21.88;;;;;;;0.93;100.00;101748.44;4994290;28;20037;-77
2022/12/19 01:45:06;;;;;;;66.60;23.33;;;;;;;0.94;100.00;101749.31;4995829;28;20033;-77
2022/12/19 01:47:45;;;;;;;67.45;23.13;;;;;;;0.93;100.00;101758.66;4993844;28;20396;-77
2022/12/19 01:50:14;;;;;;;69.00;22.50;;;;;;;0.92;100.00;101739.03;4977846;28;20030;-77
2022/12/19 01:52:41;;;;;;;61.22;22.65;;;;;;;0.96;100.00;101743.41;4991228;28;20394;-77
2022/12/19 01:55:07;;;;;;;65.95;22.52;;;;;;;0.96;100.00;101735.75;4991677;28;20032;-78
2022/12/19 01:57:32;;;;;;;70.03;22.98;;;;;;;0.99;100.00;101745.19;4978073;28;20045;-77
2022/12/19 02:00:00;;;;;;;68.13;21.77;;;;;;;0.96;100.00;101732.31;4975993;28;20023;-78
2022/12/19 02:02:32;;;;;;;63.38;23.27;;;;;;;0.98;100.00;101746.88;4989495;28;20030;-78
2022/12/19 02:05:00;;;;;;;65.38;22.35;;;;;;;0.97;100.00;101736.63;4995392;28;20057;-78
2022/12/19 02:07:26;;;;;;;63.60;22.23;;;;;;;0.98;100.00;101735.81;4977237;28;20053;-78
2022/12/19 02:09:56;;;;;;;64.05;21.20;;;;;;;0.99;100.00;101729.88;4993311;28;20066;-73
2022/12/19 02:12:26;;;;;;;72.38;23.23;;;;;;;1.02;100.00;101725.75;4994063;28;20027;-74
2022/12/19 02:14:54;;;;;;;62.08;21.83;;;;;;;1.03;100.00;101718.94;4994281;28;20543;-73
2022/12/19 02:17:28;;;;;;;60.83;21.33;;;;;;;1.05;100.00;101725.81;4972588;28;20197;-74
2022/12/19 02:20:24;;;;;;;61.65;22.27;;;;;;;1.06;100.00;101722.44;4984420;28;20297;-74
2022/12/19 02:23:07;;;;;;;58.70;21.45;;;;;;;1.09;100.00;101706.38;4993201;28;20113;-74
2022/12/19 02:26:06;;;;;;;62.75;21.42;;;;;;;1.09;100.00;101703.81;4993233;28;20029;-74
2022/12/19 02:28:52;;;;;;;64.90;21.10;;;;;;;1.11;100.00;101691.94;4994005;28;20081;-74
2022/12/19 02:31:26;;;;;;;63.95;22.27;;;;;;;1.14;100.00;101692.03;4992109;28;20026;-74
2022/12/19 02:33:54;;;;;;;69.88;21.30;;;;;;;1.16;100.00;101693.78;4983010;28;20470;-74
2022/12/19 02:36:39;;;;;;;65.43;20.73;;;;;;;1.19;100.00;101690.47;4992539;28;20038;-74
2022/12/19 02:39:14;;;;;;;66.82;24.00;;;;;;;1.21;100.00;101699.06;4993019;28;20057;-74
2022/12/19 02:41:47;;;;;;;65.57;21.25;;;;;;;1.21;100.00;101699.06;4991079;28;20077;-74
2022/12/19 02:44:46;;;;;;;69.40;22.63;;;;;;;1.26;100.00;101689.81;4993936;28;20116;-74
2022/12/19 02:47:13;;;;;;;56.20;20.77;;;;;;;1.28;100.00;101677.97;4986145;28;20276;-74
2022/12/19 02:49:38;;;;;;;62.33;22.20;;;;;;;1.29;100.00;101664.38;4993090;28;20093;-74
2022/12/19 02:52:19;;;;;;;65.65;21.52;;;;;;;1.32;100.00;101661.88;4992839;28;20042;-74
2022/12/19 02:54:47;;;;;;;59.70;21.33;;;;;;;1.35;100.00;101656.88;4992745;28;20141;-74
2022/12/19 02:57:28;;;;;;;67.43;22.30;;;;;;;1.37;100.00;101654.34;4992518;28;20034;-74
2022/12/19 02:59:59;;;;;;;63.50;21.17;;;;;;;1.40;100.00;101651.88;4992588;28;20385;-74
2022/12/19 03:02:37;;;;;;;64.28;22.92;;;;;;;1.42;100.00;101656.22;4992131;28;20014;-73
2022/12/19 03:05:12;;;;;;;62.75;21.27;;;;;;;1.45;100.00;101657.97;4992361;28;20080;-73
2022/12/19 03:07:55;;;;;;;62.30;20.85;;;;;;;1.46;100.00;101645.25;4975387;28;20109;-74
2022/12/19 03:10:41;;;;;;;61.95;21.42;;;;;;;1.49;100.00;101647.03;4973257;28;20038;-73
2022/12/19 03:13:29;;;;;;;65.28;20.85;;;;;;;1.52;100.00;101647.09;4985362;28;20026;-73
2022/12/19 03:15:57;;;;;;;65.20;22.15;;;;;;;1.54;100.00;101637.78;4992089;28;20481;-73
2022/12/19 03:18:22;;;;;;;61.90;21.05;;;;;;;1.57;100.00;101648.06;4974279;28;20026;-78
2022/12/19 03:21:03;;;;;;;59.60;19.17;;;;;;;1.61;100.00;101639.66;4994235;28;20038;-78
2022/12/19 03:23:29;;;;;;;52.65;19.15;;;;;;;1.65;100.00;101643.16;4991259;28;20034;-78
2022/12/19 03:26:01;;;;;;;61.55;20.40;;;;;;;1.66;100.00;101647.44;4989810;28;20065;-78
2022/12/19 03:28:39;;;;;;;56.78;19.80;;;;;;;1.69;100.00;101640.72;4992716;28;20040;-78
2022/12/19 03:31:08;;;;;;;62.13;19.80;;;;;;;1.72;100.00;101627.16;4993682;28;20031;-78
2022/12/19 03:33:35;;;;;;;68.13;20.80;;;;;;;1.74;100.00;101639.16;4992249;28;20034;-77
2022/12/19 03:36:06;;;;;;;64.93;19.52;;;;;;;1.78;100.00;101634.97;4989722;28;20034;-77
2022/12/19 03:38:33;;;;;;;61.58;20.10;;;;;;;1.79;100.00;101632.44;4992315;28;20165;-78
2022/12/19 03:40:59;;;;;;;59.38;19.92;;;;;;;1.82;100.00;101629.97;4993296;28;20045;-77
2022/12/19 03:43:27;;;;;;;58.35;20.05;;;;;;;1.87;100.00;101618.19;4992220;28;20030;-77
2022/12/19 03:45:57;;;;;;;62.58;19.73;;;;;;;1.91;100.00;101625.06;4993394;28;20034;-77
2022/12/19 03:48:31;;;;;;;58.58;20.02;;;;;;;1.92;100.00;101628.50;4988815;28;20058;-77
2022/12/19 03:51:08;;;;;;;62.88;19.58;;;;;;;1.93;100.00;101613.19;4992467;28;20034;-77
2022/12/19 03:54:05;;;;;;;55.72;19.55;;;;;;;1.97;100.00;101622.69;4981350;28;20109;-77
2022/12/19 03:56:39;;;;;;;52.85;18.92;;;;;;;2.01;100.00;101620.19;4962023;28;20050;-77
2022/12/19 03:59:32;;;;;;;57.42;18.55;;;;;;;2.03;100.00;101608.31;4992914;28;20030;-77
2022/12/19 04:01:58;;;;;;;54.22;18.58;;;;;;;2.08;100.00;101617.81;4969584;28;20034;-77
2022/12/19 04:04:25;;;;;;;54.15;19.13;;;;;;;2.10;100.00;101611.06;4993105;28;20053;-77
2022/12/19 04:06:52;;;;;;;64.15;19.52;;;;;;;2.16;100.00;101613.75;4975076;28;20030;-77
2022/12/19 04:09:22;;;;;;;58.17;18.60;;;;;;;2.19;100.00;101612.94;4993253;28;20453;-77
2022/12/19 04:11:52;;;;;;;57.47;18.85;;;;;;;2.22;100.00;101603.66;4992396;28;20510;-77
2022/12/19 04:14:30;;;;;;;53.97;18.83;;;;;;;2.26;100.00;101608.00;4992829;28;20018;-77
2022/12/19 04:17:22;;;;;;;51.97;17.65;;;;;;;2.29;100.00;101602.09;4990475;28;20058;-77
2022/12/19 04:20:01;;;;;;;56.45;18.45;;;;;;;2.34;100.00;101603.91;4979866;28;20454;-73
2022/12/19 04:22:30;;;;;;;47.83;17.10;;;;;;;2.38;100.00;101599.75;4988771;28;20489;-73
2022/12/19 04:24:58;;;;;;;59.47;17.60;;;;;;;2.43;100.00;101598.16;4991431;28;20034;-73
2022/12/19 04:27:25;;;;;;;55.28;17.15;;;;;;;2.49;100.00;101602.53;4991565;28;20072;-73
2022/12/19 04:29:56;;;;;;;48.30;16.73;;;;;;;2.53;100.00;101592.38;4992055;28;20033;-73
2022/12/19 04:32:23;;;;;;;49.30;16.00;;;;;;;2.58;100.00;101595.91;4989374;28;20451;-73
2022/12/19 04:34:49;;;;;;;52.38;17.23;;;;;;;2.64;100.00;101584.94;4991839;28;20029;-73
2022/12/19 04:37:14;;;;;;;45.45;15.93;;;;;;;2.68;100.00;101581.59;4990436;28;20066;-73
2022/12/19 04:39:40;;;;;;;50.00;16.48;;;;;;;2.74;100.00;101574.03;4990932;28;20038;-73
2022/12/19 04:42:05;;;;;;;56.38;16.33;;;;;;;2.80;100.00;101588.69;4989487;28;20034;-73
2022/12/19 04:44:30;;;;;;;50.08;15.63;;;;;;;2.84;100.00;101581.06;4991503;28;20022;-73
2022/12/19 04:46:56;;;;;;;44.90;13.85;;;;;;;2.90;100.00;101577.75;4990849;28;20034;-73
2022/12/19 04:49:21;;;;;;;44.90;15.35;;;;;;;2.95;100.00;101574.44;4974654;28;20046;-78
2022/12/19 04:51:46;;;;;;;42.78;14.55;;;;;;;3.04;100.00;101581.44;4989688;28;20076;-78
2022/12/19 04:54:12;;;;;;;43.15;14.13;;;;;;;3.11;100.00;101581.59;4985381;28;20018;-78
2022/12/19 04:56:37;;;;;;;40.47;12.98;;;;;;;3.17;100.00;101581.72;4984167;28;20054;-77
2022/12/19 04:59:02;;;;;;;40.75;13.65;;;;;;;3.25;100.00;101581.84;4992485;28;20037;-77
2022/12/19 05:01:28;;;;;;;42.20;13.20;;;;;;;3.35;100.00;101580.28;4991901;28;20031;-77
2022/12/19 05:03:53;;;;;;;41.53;12.32;;;;;;;3.43;100.00;101578.72;4991149;28;20118;-77
2022/12/19 05:06:19;;;;;;;37.30;12.43;;;;;;;3.51;100.00;101582.28;4991862;28;20081;-78
2022/12/19 05:08:45;;;;;;;36.83;12.10;;;;;;;3.56;100.00;101581.53;4990295;28;20026;-77
2022/12/19 05:11:13;;;;;;;37.13;11.95;;;;;;;3.65;100.00;101582.53;4982632;28;20137;-77
2022/12/19 05:13:38;;;;;;;36.88;12.52;;;;;;;3.74;100.00;101569.88;4991468;28;20026;-77
2022/12/19 05:16:07;;;;;;;42.35;12.40;;;;;;;3.80;100.00;101578.50;4992480;28;20029;-77
2022/12/19 05:18:33;;;;;;;40.92;12.52;;;;;;;3.85;100.00;101571.75;4992135;28;20480;-77
2022/12/19 05:20:58;;;;;;;38.10;11.75;;;;;;;3.92;100.00;101565.00;4992542;28;20034;-77
2022/12/19 05:23:24;;;;;;;34.20;11.48;;;;;;;3.95;100.00;101563.38;4991467;28;20030;-77
2022/12/19 05:25:50;;;;;;;36.58;12.13;;;;;;;4.03;100.00;101557.47;4991648;28;20460;-77
2022/12/19 05:28:16;;;;;;;32.90;11.38;;;;;;;4.06;100.00;101555.81;4992478;28;20366;-77
2022/12/19 05:30:42;;;;;;;33.40;10.43;;;;;;;4.13;100.00;101560.19;4992800;28;20081;-77
2022/12/19 05:33:08;;;;;;;35.50;11.73;;;;;;;4.20;100.00;101563.69;4991342;28;20037;-77
2022/12/19 05:35:34;;;;;;;36.22;11.40;;;;;;;4.23;100.00;101556.91;4992581;28;20049;-77
2022/12/19 05:38:00;;;;;;;29.20;11.43;;;;;;;4.29;100.00;101563.84;4992499;28;20034;-78
2022/12/19 05:40:25;;;;;;;32.25;11.00;;;;;;;4.32;100.00;101562.16;4992206;28;20037;-77
2022/12/19 05:42:50;;;;;;;30.35;10.82;;;;;;;4.38;100.00;101558.81;4983621;28;20058;-77
2022/12/19 05:45:16;;;;;;;31.70;10.73;;;;;;;4.43;100.00;101551.19;4992831;28;20030;-77
2022/12/19 05:47:45;;;;;;;31.27;11.45;;;;;;;4.48;100.00;101546.97;4987800;28;20039;-77
2022/12/19 05:50:11;;;;;;;28.15;10.93;;;;;;;4.52;100.00;101548.72;4989156;28;20030;-72
2022/12/19 05:52:36;;;;;;;30.20;11.02;;;;;;;4.59;100.00;101547.94;4990391;28;20132;-73
2022/12/19 05:55:01;;;;;;;27.48;11.07;;;;;;;4.64;100.00;101536.03;4991550;28;20026;-72
2022/12/19 05:57:27;;;;;;;31.33;10.85;;;;;;;4.67;100.00;101547.19;4972876;28;20489;-72
2022/12/19 05:59:52;;;;;;;31.13;11.23;;;;;;;4.75;100.00;101547.28;4987018;28;20027;-72
2022/12/19 06:02:17;;;;;;;31.63;10.10;;;;;;;4.80;100.00;101540.50;4979085;28;20077;-72
2022/12/19 06:04:42;;;;;;;32.55;11.05;;;;;;;4.82;100.00;101553.34;4989944;28;20050;-72
2022/12/19 06:07:08;;;;;;;26.65;10.52;;;;;;;4.86;100.00;101545.69;4990118;28;20442;-73
2022/12/19 06:09:33;;;;;;;30.75;10.82;;;;;;;4.90;100.00;101547.47;4990012;28;20080;-72
2022/12/19 06:11:58;;;;;;;31.10;11.13;;;;;;;4.93;100.00;101544.03;4991343;28;20240;-72
2022/12/19 06:14:24;;;;;;;27.45;10.82;;;;;;;4.96;100.00;101542.38;4991319;28;20031;-72
2022/12/19 06:16:49;;;;;;;27.38;10.93;;;;;;;5.00;100.00;101550.97;4989868;28;20038;-72
2022/12/19 06:19:14;;;;;;;26.55;10.27;;;;;;;5.04;100.00;101539.91;4986933;28;20026;-77
2022/12/19 06:21:39;;;;;;;25.90;10.13;;;;;;;5.06;100.00;101536.47;4991043;28;20026;-77
2022/12/19 06:24:05;;;;;;;26.40;9.60;;;;;;;5.08;100.00;101541.66;4972467;28;20030;-77
2022/12/19 06:26:30;;;;;;;26.42;10.52;;;;;;;5.08;100.00;101542.50;4977254;28;20018;-77
2022/12/19 06:28:56;;;;;;;29.15;9.45;;;;;;;5.12;100.00;101548.53;4992226;28;20026;-77
2022/12/19 06:31:23;;;;;;;27.33;10.25;;;;;;;5.11;100.00;101546.81;4981392;28;20064;-77
2022/12/19 06:33:49;;;;;;;26.13;10.18;;;;;;;5.13;100.00;101547.69;4985130;28;20035;-77
2022/12/19 06:36:16;;;;;;;26.48;9.63;;;;;;;5.16;100.00;101552.88;4993514;28;20374;-77
2022/12/19 06:38:41;;;;;;;27.35;10.15;;;;;;;5.18;100.00;101565.72;4991311;28;20493;-78
2022/12/19 06:43:56;;;;;;;24.30;9.77;;;;;;;5.24;100.00;101552.94;4995746;28;20037;-77
2022/12/19 06:46:22;;;;;;;26.02;10.05;;;;;;;5.29;100.00;101549.56;4993750;28;20034;-77
2022/12/19 06:48:47;;;;;;;28.63;10.32;;;;;;;5.37;100.00;101554.78;4992405;28;20026;-77
2022/12/19 06:51:13;;;;;;;25.20;10.15;;;;;;;5.39;100.00;101565.94;4993701;28;20034;-77
2022/12/19 06:53:39;;;;;;;31.70;10.57;;;;;;;5.40;100.00;101559.91;4995414;28;20362;-77
2022/12/19 06:56:04;;;;;;;25.70;10.05;;;;;;;5.43;100.00;101565.09;4993993;28;20104;-78
2022/12/19 06:58:31;;;;;;;26.52;9.82;;;;;;;5.41;100.00;101557.38;4995345;28;20046;-77
2022/12/19 07:00:56;;;;;;;24.50;9.88;;;;;;;5.45;100.00;101571.13;4994459;28;20485;-77
2022/12/19 07:03:28;;;;;;;26.70;9.50;;;;;;;5.50;100.00;101544.59;4995598;28;20057;-77
2022/12/19 07:05:54;;;;;;;22.17;8.35;;;;;;;5.60;100.00;101571.25;4994801;28;20054;-77
2022/12/19 07:08:19;;;;;;;24.30;9.35;;;;;;;5.58;100.00;101554.97;4987337;28;20078;-77
2022/12/19 07:10:45;;;;;;;25.85;10.20;;;;;;;5.64;100.00;101561.84;4989935;28;20391;-77
2022/12/19 07:13:10;;;;;;;23.27;9.98;;;;;;;5.64;100.00;101567.00;4995168;28;20392;-77
2022/12/19 07:15:36;;;;;;;25.13;10.75;;;;;;;5.63;100.00;101563.56;4993226;28;20113;-77
2022/12/19 07:18:04;;;;;;;23.38;9.38;;;;;;;5.65;100.00;101574.72;4993466;28;20109;-77
2022/12/19 07:20:31;;;;;;;24.27;10.05;;;;;;;5.66;100.00;101557.59;4994335;28;20034;-77
2022/12/19 07:22:56;;;;;;;23.95;9.85;;;;;;;5.69;100.00;101565.31;4994792;28;20026;-77
2022/12/19 07:25:21;;;;;;;25.17;10.38;;;;;;;5.67;100.00;101567.88;4993935;28;20401;-77
2022/12/19 07:27:47;;;;;;;26.35;10.02;;;;;;;5.72;100.00;101565.34;4992877;28;20174;-77
2022/12/19 07:30:12;;;;;;;22.35;10.18;;;;;;;5.74;100.00;101572.22;4994378;28;20022;-77
2022/12/19 07:32:38;;;;;;;25.35;9.93;;;;;;;5.75;100.00;101566.22;4994495;28;20113;-77
2022/12/19 07:35:07;;;;;;;21.08;9.32;;;;;;;5.78;100.00;101568.84;4992805;28;20509;-77
2022/12/19 07:37:32;;;;;;;25.90;10.07;;;;;;;5.80;100.00;101574.81;4988807;28;20045;-77
2022/12/19 07:39:58;;;;;;;24.45;9.63;;;;;;;5.80;100.00;101574.81;4994409;28;20026;-77
2022/12/19 07:42:23;;;;;;;22.65;9.48;;;;;;;5.80;100.00;101574.81;4991438;28;20033;-77
2022/12/19 07:44:48;;;;;;;22.88;9.40;;;;;;;5.80;100.00;101584.28;4992284;28;20065;-77
2022/12/19 07:47:14;;;;;;;25.42;9.85;;;;;;;5.81;100.00;101568.84;4987224;28;20090;-77
2022/12/19 07:49:39;;;;;;;21.08;9.70;;;;;;;5.82;100.00;101585.13;4989670;28;20030;-77
2022/12/19 07:52:04;;;;;;;24.27;9.38;;;;;;;5.79;100.00;101580.00;4990590;28;20105;-77
2022/12/19 07:54:30;;;;;;;20.13;8.80;;;;;;;5.79;100.00;101578.28;4991758;28;20026;-77
2022/12/19 07:56:55;;;;;;;19.98;8.88;;;;;;;5.80;100.00;101584.28;4993583;28;20038;-77
2022/12/19 07:59:21;;;;;;;20.20;8.85;;;;;;;5.78;100.00;101583.41;4990053;28;20045;-77
2022/12/19 08:01:46;;;;;;;20.20;8.73;;;;;;;5.79;100.00;101586.00;4988175;28;20041;-77
2022/12/19 08:04:12;;;;;;;18.92;8.60;;;;;;;5.83;100.00;101587.72;4984680;28;20050;-77
2022/12/19 08:06:37;;;;;;;19.00;9.05;;;;;;;5.85;100.00;101598.03;4994164;28;20022;-77
2022/12/19 08:09:02;;;;;;;18.98;9.18;;;;;;;5.87;100.00;101596.31;4992074;28;20029;-77
2022/12/19 08:11:28;;;;;;;21.27;8.80;;;;;;;5.88;100.00;101603.22;4987129;28;20057;-77
2022/12/19 08:13:56;;;;;;;20.90;9.00;;;;;;;5.87;100.00;101604.03;4992564;28;20051;-77
2022/12/19 08:16:23;;;;;;;19.55;9.18;;;;;;;5.89;100.00;101599.81;4990117;28;20026;-77
2022/12/19 08:18:48;;;;;;;20.75;9.23;;;;;;;5.91;100.00;101605.84;4991824;28;20405;-77
2022/12/19 08:21:14;;;;;;;18.25;8.93;;;;;;;5.94;100.00;101598.97;4992478;28;20485;-77
2022/12/19 08:23:39;;;;;;;19.75;8.82;;;;;;;5.93;100.00;101602.44;4992678;28;20465;-77
2022/12/19 08:26:07;;;;;;;18.55;8.68;;;;;;;5.99;100.00;101600.75;4979555;28;20560;-77
2022/12/19 08:28:34;;;;;;;19.40;8.85;;;;;;;6.00;100.00;101589.59;4986483;28;20509;-72
2022/12/19 08:31:14;;;;;;;17.08;8.23;;;;;;;6.00;100.00;101593.03;4991367;28;20030;-72
2022/12/19 08:33:39;;;;;;;19.40;9.32;;;;;;;6.00;100.00;101598.19;4992792;28;20062;-72
2022/12/19 08:36:11;;;;;;;20.63;9.13;;;;;;;6.04;100.00;101592.19;4992774;28;20034;-72
2022/12/19 08:38:38;;;;;;;18.90;8.27;;;;;;;6.06;100.00;101590.50;4992331;28;20054;-72
2022/12/19 08:41:04;;;;;;;20.23;8.70;;;;;;;6.08;100.00;101593.06;4992591;28;20473;-72
2022/12/19 08:43:30;;;;;;;17.90;8.55;;;;;;;6.13;100.00;101597.41;4972328;28;20022;-72
2022/12/19 08:45:56;;;;;;;21.15;8.70;;;;;;;6.17;100.00;101593.13;4987661;28;20440;-72
2022/12/19 08:48:22;;;;;;;19.98;8.68;;;;;;;6.21;100.00;101602.63;4983072;28;20030;-72
2022/12/19 08:50:52;;;;;;;22.42;8.63;;;;;;;6.20;100.00;101606.91;4986933;28;20085;-72
2022/12/19 08:53:18;;;;;;;19.83;8.45;;;;;;;6.23;100.00;101612.06;4993231;28;20038;-73
2022/12/19 08:55:43;;;;;;;15.18;8.13;;;;;;;6.28;100.00;101610.38;4992858;28;20109;-73
2022/12/19 08:58:09;;;;;;;20.85;8.75;;;;;;;6.30;100.00;101608.66;4991828;28;20113;-73
2022/12/19 09:00:34;;;;;;;20.13;9.35;;;;;;;6.35;100.00;101603.53;4992416;28;20042;-74
2022/12/19 09:02:59;;;;;;;18.00;8.07;;;;;;;6.38;100.00;101607.84;4992019;28;20109;-73
2022/12/19 09:05:24;;;;;;;16.73;8.38;;;;;;;6.41;100.00;101600.16;4991856;28;20046;-73
2022/12/19 09:07:50;;;;;;;15.65;8.23;;;;;;;6.43;100.00;101594.16;4990233;28;20037;-73
2022/12/19 09:10:15;;;;;;;18.70;8.90;;;;;;;6.47;100.00;101610.50;4990572;28;20014;-73
2022/12/19 09:12:40;;;;;;;17.35;8.52;;;;;;;6.50;100.00;101607.91;4989617;28;20030;-74
2022/12/19 09:15:06;;;;;;;20.08;8.73;;;;;;;6.49;100.00;101613.91;4980928;28;20726;-73
2022/12/19 09:17:31;;;;;;;18.42;8.85;;;;;;;6.47;100.00;101610.50;4989708;28;20034;-73
2022/12/19 09:19:57;;;;;;;19.98;8.48;;;;;;;6.49;100.00;101611.34;4989678;28;20037;-73
2022/12/19 09:22:22;;;;;;;15.10;7.57;;;;;;;6.50;100.00;101615.63;4991023;28;20030;-73
2022/12/19 09:24:47;;;;;;;17.00;8.10;;;;;;;6.51;100.00;101615.66;4994584;28;20541;-73
2022/12/19 09:27:13;;;;;;;17.02;8.00;;;;;;;6.53;100.00;101610.53;4991564;28;20034;-73
2022/12/19 09:29:38;;;;;;;18.55;8.35;;;;;;;6.55;100.00;101622.53;4992523;28;20023;-73
2022/12/19 09:32:03;;;;;;;18.00;8.88;;;;;;;6.56;100.00;101611.38;4991467;28;20041;-73
2022/12/19 09:34:29;;;;;;;15.90;8.13;;;;;;;6.60;100.00;101618.28;4992518;28;20026;-72
2022/12/19 09:36:54;;;;;;;20.27;8.23;;;;;;;6.65;100.00;101608.00;4991721;28;20030;-73
2022/12/19 09:39:20;;;;;;;18.52;8.32;;;;;;;6.66;100.00;101617.44;4999572;28;20621;-73
2022/12/19 09:42:10;;;;;;;17.02;8.13;;;;;;;6.70;100.00;101614.03;4987473;28;20113;-73
2022/12/19 09:45:02;;;;;;;16.75;8.07;;;;;;;6.73;100.00;101622.66;4995018;28;20057;-73
2022/12/19 09:47:32;;;;;;;21.23;9.30;;;;;;;6.76;100.00;101608.91;4988782;28;20035;-73
2022/12/19 09:50:00;;;;;;;21.10;9.02;;;;;;;6.80;100.00;101613.22;4983306;28;20018;-73
2022/12/19 09:52:32;;;;;;;17.33;8.15;;;;;;;6.87;100.00;101612.41;4991710;28;20022;-73
2022/12/19 09:55:22;;;;;;;18.67;8.45;;;;;;;6.90;100.00;101622.69;4992974;28;20642;-73
2022/12/19 09:57:54;;;;;;;16.88;8.40;;;;;;;6.97;100.00;101618.41;4989716;28;20037;-73
2022/12/19 10:00:21;;;;;;;16.50;7.80;;;;;;;7.03;100.00;101623.59;4992547;28;20085;-73
2022/12/19 10:03:12;;;;;;;20.48;8.85;;;;;;;7.08;100.00;101627.06;4995016;28;20121;-73
2022/12/19 10:05:44;;;;;;;18.10;8.50;;;;;;;7.10;100.00;101626.19;4985988;28;20696;-73
2022/12/19 10:08:17;;;;;;;16.35;8.05;;;;;;;7.14;100.00;101632.25;5000312;28;20030;-73
2022/12/19 10:11:06;;;;;;;15.00;7.93;;;;;;;7.12;100.00;101632.22;4993643;28;20032;-73
2022/12/19 10:14:02;;;;;;;15.68;8.07;;;;;;;7.13;100.00;101633.97;4995190;28;20708;-73
2022/12/19 10:17:11;;;;;;;15.65;7.50;;;;;;;7.19;100.00;101629.66;4951800;28;20612;-73
2022/12/19 10:19:58;;;;;;;14.18;7.47;;;;;;;7.17;100.00;101627.06;4996319;28;20027;-73
2022/12/19 10:22:46;;;;;;;14.20;7.63;;;;;;;7.17;100.00;101615.91;4992107;28;20032;-73
2022/12/19 10:25:36;;;;;;;17.20;7.53;;;;;;;7.16;100.00;101617.66;4995858;28;20053;-73
2022/12/19 10:28:10;;;;;;;14.93;7.65;;;;;;;7.19;100.00;101627.09;4995404;28;20512;-73
2022/12/19 10:30:43;;;;;;;14.68;7.25;;;;;;;7.20;100.00;101627.09;4986667;28;20084;-72
2022/12/19 10:33:30;;;;;;;14.55;7.63;;;;;;;7.20;100.00;101623.66;4991117;28;20076;-73
2022/12/19 10:35:59;;;;;;;17.65;7.38;;;;;;;7.18;100.00;101625.38;4994748;28;20069;-73
2022/12/19 10:38:37;;;;;;;14.73;7.55;;;;;;;7.16;100.00;101624.53;4997949;28;20072;-73
2022/12/19 10:41:22;;;;;;;14.43;7.30;;;;;;;7.13;100.00;101628.81;4994739;28;20497;-73
2022/12/19 10:44:06;;;;;;;13.60;7.38;;;;;;;7.12;100.00;101632.22;4996628;28;20026;-73
2022/12/19 10:46:46;;;;;;;14.43;7.53;;;;;;;7.14;100.00;101629.66;4994966;28;20027;-73
2022/12/19 10:49:15;;;;;;;14.75;7.78;;;;;;;7.12;100.00;101632.22;4996040;28;20080;-73
2022/12/19 10:51:50;;;;;;;16.30;7.43;;;;;;;7.13;100.00;101618.50;4990942;28;20460;-72
2022/12/19 10:54:16;;;;;;;17.90;8.57;;;;;;;7.13;100.00;101615.91;4976496;28;20034;-72
2022/12/19 10:56:42;;;;;;;14.30;7.10;;;;;;;7.18;100.00;101628.81;4991784;28;20034;-72
2022/12/19 10:59:16;;;;;;;18.40;7.50;;;;;;;7.23;100.00;101618.53;4988555;28;20489;-72
2022/12/19 11:01:42;;;;;;;16.90;7.65;;;;;;;7.22;100.00;101621.97;4994083;28;20026;-72
2022/12/19 11:04:19;;;;;;;16.30;8.07;;;;;;;7.24;100.00;101623.66;4997657;28;20378;-72
2022/12/19 11:07:01;;;;;;;16.40;7.65;;;;;;;7.26;100.00;101616.81;4984728;28;20022;-72
2022/12/19 11:09:38;;;;;;;15.50;7.80;;;;;;;7.28;100.00;101614.22;4989430;28;20416;-82
2022/12/19 11:12:07;;;;;;;14.25;7.63;;;;;;;7.30;100.00;101602.22;4994083;28;20100;-81
2022/12/19 11:14:35;;;;;;;16.05;8.25;;;;;;;7.31;100.00;101606.47;4991658;28;20030;-81
2022/12/19 11:17:02;;;;;;;16.17;7.70;;;;;;;7.33;100.00;101600.47;4988337;28;20030;-81
2022/12/19 11:19:35;;;;;;;15.48;7.75;;;;;;;7.34;100.00;101603.94;4991487;28;20041;-80
2022/12/19 11:22:20;;;;;;;15.60;7.90;;;;;;;7.31;100.00;101601.31;4995742;28;20026;-81
2022/12/19 11:24:49;;;;;;;16.38;7.32;;;;;;;7.30;100.00;101599.63;4994493;28;20540;-81
2022/12/19 11:27:33;;;;;;;13.80;6.82;;;;;;;7.35;100.00;101595.34;4992138;28;20027;-81